createdAt,value
2023-04-03T00:01:58.813Z,40.65
2023-04-03T00:07:02.318Z,41.00
2023-04-03T00:12:07.486Z,30.85
2023-04-03T00:17:11.011Z,36.63
2023-04-03T00:22:14.693Z,39.58
2023-04-03T00:27:19.588Z,39.85
2023-04-03T00:37:26.852Z,45.20
2023-04-03T00:42:31.717Z,36.55
2023-04-03T00:52:41.055Z,44.13
2023-04-03T00:57:47.373Z,45.13
2023-04-03T01:02:51.274Z,47.55
2023-04-03T01:07:55.768Z,39.70
2023-04-03T01:13:02.849Z,37.40
2023-04-03T01:18:06.567Z,39.25
2023-04-03T01:23:24.662Z,38.58
2023-04-03T01:28:32.356Z,36.20
2023-04-03T01:33:37.841Z,38.13
2023-04-03T01:38:41.597Z,35.30
2023-04-03T01:43:45.131Z,33.17
2023-04-03T01:48:51.310Z,34.55
2023-04-03T01:53:54.968Z,30.33
2023-04-03T01:58:58.428Z,32.58
2023-04-03T02:04:03.335Z,31.08
2023-04-03T02:14:10.501Z,27.23
2023-04-03T02:19:35.284Z,31.17
2023-04-03T02:29:43.580Z,35.10
2023-04-03T02:34:48.477Z,35.13
2023-04-03T02:44:55.030Z,34.08
2023-04-03T02:49:59.883Z,35.60
2023-04-03T03:00:09.043Z,30.25
2023-04-03T03:05:13.943Z,33.42
2023-04-03T03:10:17.680Z,27.67
2023-04-03T03:15:21.323Z,33.75
2023-04-03T03:20:26.149Z,28.00
2023-04-03T03:30:32.786Z,41.42
2023-04-03T03:35:38.062Z,39.33
2023-04-03T03:40:41.706Z,41.80
2023-04-03T03:45:45.836Z,39.42
2023-04-03T03:50:51.404Z,38.27
2023-04-03T03:55:54.885Z,33.22
2023-04-03T04:00:58.327Z,35.72
2023-04-03T04:06:03.207Z,33.60
2023-04-03T04:16:10.993Z,32.92
2023-04-03T04:21:15.856Z,33.15
2023-04-03T04:31:22.500Z,30.33
2023-04-03T04:36:27.465Z,32.38
2023-04-03T04:41:31.143Z,30.30
2023-04-03T04:46:34.777Z,24.33
2023-04-03T04:51:50.959Z,26.60
2023-04-03T04:56:55.724Z,23.45
2023-04-03T05:01:59.315Z,24.77
2023-04-03T05:07:04.214Z,22.70
2023-04-03T05:17:11.033Z,22.35
2023-04-03T05:22:16.227Z,25.70
2023-04-03T05:27:19.724Z,25.38
2023-04-03T05:32:23.278Z,24.08
2023-04-03T05:37:28.245Z,25.90
2023-04-03T05:42:32.120Z,26.05
2023-04-03T05:47:35.634Z,24.92
2023-04-03T05:52:45.399Z,24.25
2023-04-03T05:57:48.934Z,25.60
2023-04-03T06:02:52.791Z,26.40
2023-04-03T06:07:58.262Z,30.67
2023-04-03T06:13:01.853Z,26.92
2023-04-03T06:18:05.566Z,24.27
2023-04-03T06:23:11.539Z,28.65
2023-04-03T06:28:15.108Z,26.10
2023-04-03T06:33:18.682Z,26.98
2023-04-03T06:38:23.554Z,28.63
2023-04-03T06:43:27.274Z,27.52
2023-04-03T06:48:31.235Z,25.73
2023-04-03T06:53:36.297Z,25.00
2023-04-03T06:58:39.746Z,26.23
2023-04-03T07:03:43.769Z,26.87
2023-04-03T07:08:49.408Z,25.15
2023-04-03T07:13:53.289Z,24.02
2023-04-03T07:18:57.201Z,29.52
2023-04-03T07:24:02.214Z,29.55
2023-04-03T07:29:05.768Z,24.95
2023-04-03T07:34:09.256Z,20.53
2023-04-03T07:39:14.154Z,27.90
2023-04-03T07:44:17.625Z,25.33
2023-04-03T07:49:21.121Z,25.60
2023-04-03T07:54:26.091Z,23.67
2023-04-03T07:59:29.590Z,31.30
2023-04-03T08:04:33.337Z,26.53
2023-04-03T08:09:38.487Z,25.40
2023-04-03T08:14:42.014Z,20.73
2023-04-03T08:19:45.630Z,23.90
2023-04-03T08:24:58.548Z,29.77
2023-04-03T08:30:02.696Z,21.00
2023-04-03T08:35:07.189Z,20.55
2023-04-03T08:40:17.089Z,24.90
2023-04-03T08:45:37.964Z,21.50
2023-04-03T08:50:43.960Z,18.30
2023-04-03T08:55:51.579Z,18.88
2023-04-03T09:01:00.902Z,20.58
2023-04-03T09:06:09.291Z,24.33
2023-04-03T09:11:23.126Z,22.02
2023-04-03T09:16:45.691Z,20.75
2023-04-03T09:21:49.350Z,21.05
2023-04-03T09:27:01.011Z,24.87
2023-04-03T09:32:28.571Z,18.02
2023-04-03T09:37:42.030Z,22.73
2023-04-03T09:42:52.038Z,18.77
2023-04-03T09:48:15.420Z,16.95
2023-04-03T09:53:31.269Z,18.85
2023-04-03T09:58:49.652Z,21.08
2023-04-03T10:04:08.277Z,21.77
2023-04-03T10:09:22.140Z,20.42
2023-04-03T10:14:27.315Z,19.03
2023-04-03T10:19:43.719Z,18.67
2023-04-03T10:24:54.222Z,16.90
2023-04-03T10:30:06.361Z,24.17
2023-04-03T10:35:18.757Z,19.02
2023-04-03T10:40:34.090Z,21.92
2023-04-03T10:45:54.396Z,18.35
2023-04-03T10:51:05.460Z,19.67
2023-04-03T10:56:18.005Z,19.20
2023-04-03T11:01:27.890Z,18.38
2023-04-03T11:06:39.297Z,21.98
2023-04-03T11:11:45.285Z,22.52
2023-04-03T11:16:56.051Z,21.38
2023-04-03T11:22:06.312Z,19.83
2023-04-03T11:27:19.363Z,21.20
2023-04-03T11:33:16.559Z,19.60
2023-04-03T11:38:25.249Z,17.00
2023-04-03T11:43:30.893Z,18.92
2023-04-03T11:49:02.549Z,17.52
2023-04-03T11:54:47.618Z,18.65
2023-04-03T11:59:51.175Z,20.58
2023-04-03T12:05:30.715Z,14.50
2023-04-03T12:10:34.206Z,15.57
2023-04-03T12:15:58.279Z,20.40
2023-04-03T12:21:04.479Z,21.43
2023-04-03T12:26:24.463Z,22.77
2023-04-03T12:31:42.420Z,21.55
2023-04-03T12:37:01.465Z,18.77
2023-04-03T12:42:17.391Z,17.63
2023-04-03T12:47:34.168Z,22.23
2023-04-03T12:52:50.375Z,19.90
2023-04-03T12:57:54.703Z,19.73
2023-04-03T13:02:58.786Z,17.37
2023-04-03T13:08:07.216Z,16.90
2023-04-03T13:13:13.357Z,17.33
2023-04-03T13:18:32.238Z,19.58
2023-04-03T13:23:40.927Z,17.05
2023-04-03T13:28:45.090Z,15.30
2023-04-03T13:33:57.650Z,16.52
2023-04-03T13:39:06.243Z,17.05
2023-04-03T13:44:32.011Z,14.82
2023-04-03T13:49:41.424Z,18.55
2023-04-03T13:54:49.999Z,22.90
2023-04-03T13:59:54.101Z,15.38
2023-04-03T14:05:02.333Z,14.82
2023-04-03T14:10:09.241Z,16.88
2023-04-03T14:15:20.430Z,15.95
2023-04-03T14:20:26.813Z,16.90
2023-04-03T14:25:32.286Z,14.75
2023-04-03T14:30:36.751Z,10.98
2023-04-03T14:40:45.230Z,13.38
2023-04-03T14:45:49.080Z,13.23
2023-04-03T14:51:04.580Z,15.25
2023-04-03T14:56:16.800Z,16.50
2023-04-03T15:01:21.043Z,16.50
2023-04-03T15:06:24.612Z,17.85
2023-04-03T15:11:29.590Z,14.27
2023-04-03T15:16:33.062Z,17.48
2023-04-03T15:21:37.098Z,17.15
2023-04-03T15:26:42.720Z,14.73
2023-04-03T15:31:46.149Z,17.38
2023-04-03T15:36:49.839Z,19.42
2023-04-03T15:41:54.930Z,18.90
2023-04-03T15:46:58.456Z,21.42
2023-04-03T15:52:02.162Z,20.00
2023-04-03T15:57:07.068Z,22.25
2023-04-03T16:02:15.167Z,24.85
2023-04-03T16:07:18.720Z,19.55
2023-04-03T16:12:23.629Z,22.92
2023-04-03T16:17:28.741Z,20.13
2023-04-03T16:22:32.742Z,23.15
2023-04-03T16:27:37.688Z,23.90
2023-04-03T16:32:42.285Z,21.67
2023-04-03T16:37:45.803Z,20.05
2023-04-03T16:42:50.867Z,19.20
2023-04-03T16:47:54.347Z,20.92
2023-04-03T16:52:57.950Z,18.70
2023-04-03T16:58:02.826Z,17.35
2023-04-03T17:03:06.430Z,17.08
2023-04-03T17:08:14.161Z,15.98
2023-04-03T17:13:21.866Z,15.85
2023-04-03T17:18:25.400Z,14.15
2023-04-03T17:23:30.677Z,14.50
2023-04-03T17:28:35.576Z,16.05
2023-04-03T17:33:39.109Z,14.55
2023-04-03T17:38:42.651Z,16.65
2023-04-03T17:43:47.822Z,15.73
2023-04-03T17:48:51.625Z,18.65
2023-04-03T17:53:55.125Z,16.95
2023-04-03T17:59:00.187Z,18.77
2023-04-03T18:04:05.445Z,19.20
2023-04-03T18:09:11.458Z,19.40
2023-04-03T18:14:19.121Z,21.40
2023-04-03T18:19:23.714Z,19.88
2023-04-03T18:29:35.054Z,21.17
2023-04-03T18:34:38.489Z,23.85
2023-04-03T18:39:41.990Z,21.25
2023-04-03T18:44:49.735Z,19.98
2023-04-03T18:49:53.300Z,19.90
2023-04-03T18:54:57.048Z,21.17
2023-04-03T19:00:01.949Z,22.92
2023-04-03T19:05:06.824Z,20.85
2023-04-03T19:10:17.170Z,23.85
2023-04-03T19:15:24.576Z,21.27
2023-04-03T19:20:28.579Z,22.60
2023-04-03T19:25:32.126Z,23.73
2023-04-03T19:30:39.537Z,23.25
2023-04-03T19:35:43.341Z,23.27
2023-04-03T19:40:47.612Z,23.50
2023-04-03T19:45:53.710Z,22.80
2023-04-03T19:50:57.177Z,22.13
2023-04-03T19:56:00.964Z,23.75
2023-04-03T20:01:07.020Z,25.38
2023-04-03T20:06:10.689Z,27.08
2023-04-03T20:11:14.416Z,24.67
2023-04-03T20:16:22.531Z,27.23
2023-04-03T20:21:30.758Z,25.40
2023-04-03T20:26:37.391Z,24.95
2023-04-03T20:31:43.453Z,26.23
2023-04-03T20:36:49.676Z,26.60
2023-04-03T20:41:53.708Z,25.08
2023-04-03T20:46:59.218Z,28.02
2023-04-03T20:52:04.969Z,28.77
2023-04-03T20:57:08.438Z,28.10
2023-04-03T21:02:13.448Z,25.27
2023-04-03T21:07:54.636Z,26.88
2023-04-03T21:13:35.022Z,25.75
2023-04-03T21:19:08.761Z,24.73
2023-04-03T21:24:12.712Z,27.02
2023-04-03T21:29:16.828Z,26.27
2023-04-03T21:34:23.697Z,25.83
2023-04-03T21:39:27.325Z,28.10
2023-04-03T21:44:32.425Z,26.52
2023-04-03T21:49:37.358Z,26.60
2023-04-03T21:54:40.785Z,26.92
2023-04-03T21:59:45.468Z,24.65
2023-04-03T22:04:50.441Z,25.88
2023-04-03T22:14:57.076Z,24.77
2023-04-03T22:20:02.034Z,22.08
2023-04-03T22:25:07.509Z,23.52
2023-04-03T22:30:11.696Z,25.40
2023-04-03T22:35:16.709Z,25.92
2023-04-03T22:40:20.479Z,26.48
2023-04-03T22:45:23.951Z,29.42
2023-04-03T22:50:29.230Z,27.80
2023-04-03T22:55:32.789Z,29.50
2023-04-03T23:00:36.410Z,31.05
2023-04-03T23:05:42.195Z,30.58
2023-04-03T23:10:46.040Z,26.67
2023-04-03T23:15:54.402Z,28.20
2023-04-03T23:21:00.909Z,29.80
2023-04-03T23:26:04.488Z,29.92
2023-04-03T23:31:08.277Z,28.50
2023-04-03T23:36:16.281Z,31.98
2023-04-03T23:41:19.792Z,28.48
2023-04-03T23:46:23.343Z,29.58
2023-04-03T23:51:28.406Z,29.50
2023-04-03T23:56:32.384Z,34.22
